Time;durP1;ratioP1;P1;durP2;ratioP2;P2;SDS_P1;SDS_P2;PMS_P1;PMS_P2;Temp;Humidity;BMP_temperature;BMP_pressure;BME280_temperature;BME280_humidity;BME280_pressure;Samples;Min_cycle;Max_cycle;Signal;HPM_P1;HPM_P2
2022/07/03 00:01:23;;;;;;;1.08;0.30;;;;;;;29.55;43.44;100730.66;4951006;29;20090;-69
2022/07/03 00:03:49;;;;;;;1.15;0.30;;;;;;;29.54;43.43;100734.41;4950014;29;20035;-70
2022/07/03 00:06:14;;;;;;;1.33;0.30;;;;;;;29.55;43.74;100737.91;4951671;29;20037;-70
2022/07/03 00:08:40;;;;;;;1.20;0.20;;;;;;;29.56;43.47;100744.91;4952027;28;20110;-71
2022/07/03 00:11:06;;;;;;;2.03;0.30;;;;;;;29.55;43.18;100736.03;4946607;28;20451;-71
2022/07/03 00:13:31;;;;;;;3.22;0.30;;;;;;;29.56;43.50;100743.03;4947018;29;20163;-71
2022/07/03 00:15:57;;;;;;;2.35;0.43;;;;;;;29.56;43.38;100736.84;4948369;28;20057;-70
2022/07/03 00:18:22;;;;;;;2.80;0.47;;;;;;;29.56;43.35;100737.66;4949008;28;20500;-70
2022/07/03 00:20:49;;;;;;;2.08;0.30;;;;;;;29.57;43.93;100741.13;4948311;28;20030;-70
2022/07/03 00:23:21;;;;;;;2.05;0.20;;;;;;;29.56;43.50;100731.47;4948100;28;20041;-69
2022/07/03 00:25:49;;;;;;;3.83;0.30;;;;;;;29.56;43.89;100726.91;4949384;29;20402;-69
2022/07/03 00:28:18;;;;;;;1.42;0.30;;;;;;;29.56;43.88;100737.66;4948314;29;20039;-70
2022/07/03 00:30:47;;;;;;;2.28;0.30;;;;;;;29.55;43.52;100730.66;4946915;29;20046;-70
2022/07/03 00:33:14;;;;;;;1.65;0.40;;;;;;;29.55;43.79;100738.72;4951023;28;20030;-70
2022/07/03 00:35:42;;;;;;;1.20;0.38;;;;;;;29.55;43.96;100730.66;4946412;28;20113;-70
2022/07/03 00:38:07;;;;;;;4.03;0.30;;;;;;;29.55;43.33;100729.84;4948854;28;20055;-71
2022/07/03 00:40:33;;;;;;;3.80;0.30;;;;;;;29.54;43.47;100725.56;4947227;28;20058;-70
2022/07/03 00:42:59;;;;;;;0.77;0.30;;;;;;;29.54;43.24;100733.63;4945363;28;20046;-70
2022/07/03 00:45:26;;;;;;;1.30;0.22;;;;;;;29.51;43.55;100728.78;4948248;29;20186;-70
2022/07/03 00:47:51;;;;;;;1.13;0.25;;;;;;;29.51;43.28;100728.78;4948095;28;20058;-70
2022/07/03 00:50:26;;;;;;;2.50;0.30;;;;;;;29.49;43.21;100728.22;4949627;28;20040;-70
2022/07/03 00:52:52;;;;;;;1.38;0.30;;;;;;;29.48;43.75;100723.94;4948374;29;20468;-70
2022/07/03 00:55:18;;;;;;;1.88;0.28;;;;;;;29.48;43.27;100726.63;4946386;28;20039;-70
2022/07/03 00:57:48;;;;;;;1.00;0.32;;;;;;;29.47;43.29;100723.13;4949801;29;20089;-70
2022/07/03 01:00:15;;;;;;;1.25;0.20;;;;;;;29.47;43.17;100725.81;4949564;29;20038;-70
2022/07/03 01:02:43;;;;;;;1.50;0.30;;;;;;;29.47;43.47;100722.31;4948603;29;20071;-70
2022/07/03 01:05:23;;;;;;;0.85;0.30;;;;;;;29.46;43.43;100729.56;4948549;28;20039;-70
2022/07/03 01:08:07;;;;;;;1.58;0.20;;;;;;;29.46;43.49;100729.56;4949381;29;20035;-70
2022/07/03 01:10:55;;;;;;;1.75;0.30;;;;;;;29.44;43.44;100723.66;4947686;28;20054;-70
2022/07/03 01:13:23;;;;;;;2.10;0.20;;;;;;;29.47;43.15;100723.13;4947810;28;20046;-72
2022/07/03 01:15:59;;;;;;;1.48;0.30;;;;;;;29.49;43.48;100725.53;4950690;28;20062;-70
2022/07/03 01:18:53;;;;;;;1.15;0.30;;;;;;;29.48;43.35;100715.88;4948501;29;20054;-70
2022/07/03 01:21:34;;;;;;;1.50;0.30;;;;;;;29.47;42.97;100717.75;4950313;29;20483;-70
2022/07/03 01:24:05;;;;;;;2.45;0.30;;;;;;;29.49;43.40;100715.59;4946149;29;20039;-70
2022/07/03 01:26:37;;;;;;;1.02;0.30;;;;;;;29.50;43.18;100711.06;4945413;28;20064;-71
2022/07/03 01:29:07;;;;;;;1.23;0.20;;;;;;;29.51;42.92;100707.28;4951903;28;20067;-70
2022/07/03 01:31:36;;;;;;;1.10;0.30;;;;;;;29.50;43.28;100698.44;4946929;29;20043;-70
2022/07/03 01:34:03;;;;;;;1.08;0.20;;;;;;;29.51;42.93;100699.25;4949456;29;20411;-71
2022/07/03 01:36:31;;;;;;;1.20;0.40;;;;;;;29.52;42.98;100696.28;4948384;29;20371;-69
2022/07/03 01:39:01;;;;;;;3.97;0.30;;;;;;;29.51;43.14;100693.88;4949524;29;20114;-70
2022/07/03 01:41:30;;;;;;;1.25;0.20;;;;;;;29.49;42.66;100686.09;4947568;29;20451;-70
2022/07/03 01:43:57;;;;;;;1.48;0.30;;;;;;;29.48;43.12;100697.09;4942896;28;20031;-71
2022/07/03 01:46:28;;;;;;;0.95;0.30;;;;;;;29.46;43.23;100689.28;4951110;28;20094;-70
2022/07/03 01:48:55;;;;;;;1.05;0.20;;;;;;;29.46;43.05;100685.81;4947228;29;20045;-70
2022/07/03 01:51:23;;;;;;;1.63;0.28;;;;;;;29.44;42.82;100686.06;4948196;29;20027;-70
2022/07/03 01:53:49;;;;;;;2.15;0.30;;;;;;;29.44;43.11;100687.94;4947209;29;20507;-70
2022/07/03 01:56:17;;;;;;;1.77;0.20;;;;;;;29.44;42.85;100686.06;4944788;28;20066;-70
2022/07/03 01:58:43;;;;;;;1.67;0.25;;;;;;;29.43;43.04;100689.00;4948461;28;20146;-70
2022/07/03 02:01:16;;;;;;;1.80;0.30;;;;;;;29.41;42.94;100686.59;4952623;29;20114;-70
2022/07/03 02:03:50;;;;;;;1.52;0.20;;;;;;;29.39;43.25;100684.16;4951939;29;20043;-70
2022/07/03 02:06:32;;;;;;;1.52;0.20;;;;;;;29.38;42.75;100684.41;4928003;29;20047;-70
2022/07/03 02:09:03;;;;;;;1.90;0.28;;;;;;;29.37;42.73;100678.22;4950977;28;20444;-70
2022/07/03 02:11:34;;;;;;;1.52;0.40;;;;;;;29.38;43.25;100673.66;4951473;28;20114;-71
2022/07/03 02:14:13;;;;;;;2.72;0.40;;;;;;;29.37;43.07;100675.56;4951962;28;20030;-70
2022/07/03 02:17:15;;;;;;;0.90;0.20;;;;;;;29.36;42.81;100668.56;4951615;29;20592;-70
2022/07/03 02:19:53;;;;;;;0.85;0.20;;;;;;;29.35;43.01;100672.31;4952255;28;20043;-70
2022/07/03 02:22:24;;;;;;;1.67;0.30;;;;;;;29.38;42.66;100665.63;4952311;29;20514;-70
2022/07/03 02:24:50;;;;;;;1.85;0.38;;;;;;;29.38;42.53;100669.09;4951655;29;20428;-70
2022/07/03 02:27:19;;;;;;;1.08;0.20;;;;;;;29.40;42.74;100663.47;4932861;29;20039;-70
2022/07/03 02:30:01;;;;;;;0.73;0.20;;;;;;;29.39;42.75;100664.56;4948316;28;20027;-70
2022/07/03 02:32:30;;;;;;;2.92;0.55;;;;;;;29.40;42.58;100664.28;4953718;29;20031;-70
2022/07/03 02:35:02;;;;;;;1.65;0.20;;;;;;;29.41;42.58;100667.81;4951646;29;20042;-70
2022/07/03 02:37:31;;;;;;;0.88;0.20;;;;;;;29.40;42.34;100669.66;4951390;29;20058;-70
2022/07/03 02:40:07;;;;;;;0.68;0.30;;;;;;;29.40;42.80;100661.59;4951649;28;20034;-70
2022/07/03 02:42:39;;;;;;;2.05;0.20;;;;;;;29.41;42.31;100670.50;4950980;28;20065;-70
2022/07/03 02:45:07;;;;;;;1.27;0.20;;;;;;;29.40;42.67;100669.66;4953516;28;20113;-70
2022/07/03 02:47:32;;;;;;;2.50;0.30;;;;;;;29.40;42.67;100661.59;4950093;28;20138;-70
2022/07/03 02:50:06;;;;;;;1.35;0.30;;;;;;;29.39;42.42;100668.03;4950425;28;20563;-71
2022/07/03 02:52:37;;;;;;;1.10;0.30;;;;;;;29.37;42.43;100667.50;4953271;29;20027;-70
2022/07/03 02:55:18;;;;;;;1.83;0.20;;;;;;;29.36;42.28;100671.25;4951478;29;20047;-70
2022/07/03 02:57:45;;;;;;;3.45;0.40;;;;;;;29.34;41.91;100670.72;4950656;28;20430;-70
2022/07/03 03:00:12;;;;;;;0.40;0.20;;;;;;;29.34;41.88;100673.38;4954863;28;20050;-71
2022/07/03 03:02:55;;;;;;;2.25;0.20;;;;;;;29.32;41.83;100672.03;4952939;29;20042;-70
2022/07/03 03:05:21;;;;;;;2.15;0.38;;;;;;;29.32;42.23;100680.09;4951521;29;20447;-70
2022/07/03 03:08:05;;;;;;;2.65;0.43;;;;;;;29.30;41.73;100674.97;4953029;29;20027;-70
2022/07/03 03:10:35;;;;;;;1.10;0.30;;;;;;;29.30;41.84;100668.84;4947602;28;20843;-70
2022/07/03 03:13:06;;;;;;;1.98;0.30;;;;;;;29.30;41.75;100669.63;4938205;28;20031;-69
2022/07/03 03:15:33;;;;;;;0.73;0.20;;;;;;;29.31;42.23;100671.22;4950628;28;20028;-70
2022/07/03 03:18:05;;;;;;;1.50;0.30;;;;;;;29.31;41.69;100670.44;4952630;29;20051;-70
2022/07/03 03:20:36;;;;;;;2.10;0.30;;;;;;;29.31;42.16;100667.75;4951579;29;20090;-70
2022/07/03 03:23:39;;;;;;;2.40;0.30;;;;;;;29.31;41.64;100670.44;4951990;28;20101;-70
2022/07/03 03:26:05;;;;;;;2.22;0.30;;;;;;;29.29;42.21;100668.03;4950506;29;20074;-71
2022/07/03 03:28:30;;;;;;;0.50;0.22;;;;;;;29.30;42.04;100669.63;4949531;28;20070;-70
2022/07/03 03:30:56;;;;;;;1.63;0.20;;;;;;;29.31;41.52;100668.56;4948670;29;20475;-70
2022/07/03 03:33:22;;;;;;;1.05;0.20;;;;;;;29.30;41.76;100677.66;4950650;28;20027;-71
2022/07/03 03:35:48;;;;;;;3.42;0.30;;;;;;;29.31;41.91;100681.16;4950857;29;20027;-70
2022/07/03 03:38:13;;;;;;;1.27;0.30;;;;;;;29.30;41.61;100683.03;4949550;28;20117;-71
2022/07/03 03:40:39;;;;;;;2.55;0.50;;;;;;;29.30;41.56;100684.94;4950382;29;20035;-71
2022/07/03 03:43:04;;;;;;;1.55;0.40;;;;;;;29.29;41.89;100678.78;4950317;28;20503;-70
2022/07/03 03:45:30;;;;;;;2.45;0.30;;;;;;;29.30;41.44;100674.22;4948322;28;20657;-70
2022/07/03 03:47:56;;;;;;;2.13;0.22;;;;;;;29.29;41.24;100676.09;4951771;29;20502;-70
2022/07/03 03:50:22;;;;;;;1.23;0.20;;;;;;;29.29;41.49;100673.41;4949296;29;20051;-70
2022/07/03 03:52:49;;;;;;;1.33;0.30;;;;;;;29.29;41.57;100676.09;4949269;29;20147;-70
2022/07/03 03:55:14;;;;;;;0.82;0.20;;;;;;;29.29;41.04;100678.78;4950038;29;20059;-71
2022/07/03 03:57:39;;;;;;;1.95;0.30;;;;;;;29.29;41.28;100683.31;4951092;29;20065;-70
2022/07/03 04:00:06;;;;;;;2.35;0.20;;;;;;;29.27;40.71;100680.91;4949935;28;20475;-70
2022/07/03 04:02:32;;;;;;;0.93;0.20;;;;;;;29.26;40.79;100687.34;4949240;28;20039;-70
2022/07/03 04:04:57;;;;;;;2.08;0.30;;;;;;;29.25;40.83;100684.91;4947736;28;20091;-71
2022/07/03 04:07:23;;;;;;;0.52;0.20;;;;;;;29.25;40.85;100684.91;4950458;29;20043;-71
2022/07/03 04:09:49;;;;;;;1.85;0.40;;;;;;;29.26;41.18;100689.22;4950347;28;20039;-70
2022/07/03 04:12:14;;;;;;;1.77;0.25;;;;;;;29.25;41.50;100688.41;4950599;29;20047;-71
2022/07/03 04:14:40;;;;;;;1.63;0.20;;;;;;;29.26;40.98;100683.84;4948427;28;20380;-70
2022/07/03 04:17:05;;;;;;;2.20;0.22;;;;;;;29.26;40.98;100692.72;4949602;29;20106;-71
2022/07/03 04:19:31;;;;;;;2.42;0.20;;;;;;;29.28;41.51;100692.44;4950949;28;20468;-70
2022/07/03 04:21:56;;;;;;;0.43;0.20;;;;;;;29.28;41.43;100689.75;4947071;28;20748;-70
2022/07/03 04:24:22;;;;;;;1.67;0.30;;;;;;;29.29;41.51;100696.75;4947722;28;20105;-71
2022/07/03 04:26:47;;;;;;;4.03;0.25;;;;;;;29.29;41.54;100694.88;4948330;28;20034;-71
2022/07/03 04:29:13;;;;;;;1.17;0.20;;;;;;;29.30;41.11;100695.69;4948663;29;20028;-70
2022/07/03 04:31:39;;;;;;;2.05;0.30;;;;;;;29.28;41.68;100693.25;4950835;29;20031;-70
2022/07/03 04:34:04;;;;;;;1.23;0.43;;;;;;;29.28;41.32;100698.63;4949797;29;20055;-71
2022/07/03 04:36:29;;;;;;;2.75;0.20;;;;;;;29.28;41.52;100690.56;4950357;28;20120;-70
2022/07/03 04:38:55;;;;;;;0.63;0.20;;;;;;;29.29;41.60;100689.50;4946400;29;20051;-70
2022/07/03 04:41:20;;;;;;;3.33;0.20;;;;;;;29.31;41.39;100691.91;4949885;28;20031;-70
2022/07/03 04:43:46;;;;;;;1.73;0.45;;;;;;;29.31;41.82;100692.69;4948736;29;20058;-71
2022/07/03 04:46:11;;;;;;;0.60;0.20;;;;;;;29.33;41.67;100701.28;4947545;28;20019;-70
2022/07/03 04:48:37;;;;;;;4.00;0.20;;;;;;;29.33;41.82;100695.94;4948482;28;20038;-71
2022/07/03 04:51:02;;;;;;;0.80;0.30;;;;;;;29.35;41.75;100696.47;4951038;29;20038;-70
2022/07/03 04:53:28;;;;;;;1.23;0.30;;;;;;;29.36;41.60;100705.31;4947173;28;20149;-70
2022/07/03 04:55:53;;;;;;;1.52;0.30;;;;;;;29.36;41.59;100695.41;4948020;29;20484;-70
2022/07/03 04:58:18;;;;;;;1.05;0.20;;;;;;;29.37;42.01;100697.00;4947603;28;20075;-70
2022/07/03 05:00:45;;;;;;;1.02;0.30;;;;;;;29.39;41.90;100696.75;4946177;28;20578;-70
2022/07/03 05:03:11;;;;;;;0.98;0.30;;;;;;;29.40;42.02;100691.13;4950470;28;20038;-71
2022/07/03 05:05:36;;;;;;;0.55;0.20;;;;;;;29.42;41.87;100698.13;4947458;28;20070;-71
2022/07/03 05:08:02;;;;;;;1.02;0.28;;;;;;;29.43;41.50;100694.38;4949503;28;20058;-70
2022/07/03 05:10:27;;;;;;;0.80;0.20;;;;;;;29.42;41.80;100688.22;4948604;29;20448;-71
2022/07/03 05:12:53;;;;;;;2.50;1.15;;;;;;;29.44;41.32;100686.06;4950501;29;20074;-70
2022/07/03 05:15:19;;;;;;;1.02;0.25;;;;;;;29.46;41.70;100688.50;4948457;29;20031;-70
2022/07/03 05:17:44;;;;;;;2.05;0.45;;;;;;;29.48;41.60;100691.72;4951730;28;20046;-70
2022/07/03 05:20:29;;;;;;;1.42;0.22;;;;;;;29.49;41.20;100698.69;4947714;28;20047;-71
2022/07/03 05:22:56;;;;;;;1.60;0.20;;;;;;;29.49;41.51;100696.81;4934870;29;20146;-70
2022/07/03 05:25:22;;;;;;;1.20;0.30;;;;;;;29.51;41.16;100700.06;4948274;29;20107;-70
2022/07/03 05:27:50;;;;;;;1.13;0.30;;;;;;;29.52;41.01;100693.63;4948775;28;20106;-70
2022/07/03 05:30:15;;;;;;;2.03;0.22;;;;;;;29.53;40.88;100689.06;4947373;28;20050;-71
2022/07/03 05:32:41;;;;;;;1.38;0.30;;;;;;;29.53;41.36;100692.53;4946791;28;20383;-70
2022/07/03 05:35:07;;;;;;;2.65;0.20;;;;;;;29.53;41.23;100689.84;4946450;28;20035;-70
2022/07/03 05:37:33;;;;;;;2.33;0.30;;;;;;;29.55;41.23;100697.66;4948512;29;20027;-70
2022/07/03 05:39:58;;;;;;;0.82;0.22;;;;;;;29.56;41.15;100699.25;4949020;28;20122;-70
2022/07/03 05:42:23;;;;;;;0.88;0.35;;;;;;;29.57;41.41;100706.25;4949740;29;20023;-71
2022/07/03 05:44:49;;;;;;;1.15;0.20;;;;;;;29.57;41.09;100698.19;4948155;28;20035;-70
2022/07/03 05:47:14;;;;;;;0.55;0.20;;;;;;;29.57;41.14;100701.69;4944949;28;20040;-71
2022/07/03 05:49:40;;;;;;;0.55;0.20;;;;;;;29.58;41.36;100702.50;4949420;28;20034;-71
2022/07/03 05:52:05;;;;;;;0.52;0.20;;;;;;;29.60;41.20;100697.66;4948262;28;20394;-71
2022/07/03 05:54:31;;;;;;;9.27;0.85;;;;;;;29.60;41.08;100703.03;4949177;28;20460;-70
2022/07/03 05:56:56;;;;;;;1.10;0.20;;;;;;;29.60;40.58;100706.53;4947850;28;20041;-70
2022/07/03 05:59:22;;;;;;;0.80;0.28;;;;;;;29.62;40.65;100711.63;4949788;29;20032;-70
2022/07/03 06:01:47;;;;;;;1.73;0.20;;;;;;;29.62;41.21;100704.38;4946959;28;20035;-70
2022/07/03 06:04:13;;;;;;;1.92;0.20;;;;;;;29.64;40.90;100704.94;4950211;28;20046;-70
2022/07/03 06:06:38;;;;;;;1.65;0.20;;;;;;;29.66;41.50;100705.47;4947148;28;20416;-70
2022/07/03 06:09:04;;;;;;;2.63;0.30;;;;;;;29.68;41.56;100707.88;4949050;29;20035;-70
2022/07/03 06:11:32;;;;;;;2.67;0.30;;;;;;;29.68;41.34;100708.69;4947785;28;20053;-71
2022/07/03 06:13:57;;;;;;;1.88;0.30;;;;;;;29.70;41.22;100706.56;4948543;29;20078;-70
2022/07/03 06:16:23;;;;;;;0.80;0.20;;;;;;;29.72;41.18;100708.97;4947810;29;20027;-70
2022/07/03 06:18:49;;;;;;;1.85;0.13;;;;;;;29.73;41.87;100713.28;4948197;28;20027;-70
2022/07/03 06:21:14;;;;;;;0.90;0.20;;;;;;;29.73;41.69;100705.22;4948625;29;20055;-70
2022/07/03 06:23:40;;;;;;;1.25;0.30;;;;;;;29.72;41.79;100708.97;4947240;28;20118;-70
2022/07/03 06:26:05;;;;;;;1.67;0.35;;;;;;;29.73;41.31;100712.47;4947805;29;20035;-70
2022/07/03 06:28:31;;;;;;;1.50;0.13;;;;;;;29.72;41.22;100708.97;4947271;28;20039;-70
2022/07/03 06:30:56;;;;;;;1.95;0.30;;;;;;;29.70;41.60;100713.81;4948547;28;20447;-70
2022/07/03 06:33:22;;;;;;;2.40;0.40;;;;;;;29.71;41.82;100715.41;4944042;29;20065;-70
2022/07/03 06:35:48;;;;;;;1.23;0.25;;;;;;;29.71;41.47;100713.53;4943734;28;20558;-70
2022/07/03 06:38:13;;;;;;;2.33;0.30;;;;;;;29.70;41.55;100711.91;4945450;28;20074;-71
2022/07/03 06:40:39;;;;;;;2.00;0.25;;;;;;;29.69;41.37;100709.50;4949512;29;20042;-71
2022/07/03 06:43:04;;;;;;;0.90;0.40;;;;;;;29.69;41.33;100710.31;4946676;28;20366;-71
2022/07/03 06:45:30;;;;;;;2.47;0.30;;;;;;;29.70;41.32;100711.13;4951755;28;20042;-71
2022/07/03 06:47:55;;;;;;;0.80;0.20;;;;;;;29.69;41.44;100702.25;4952867;29;20035;-71
2022/07/03 06:50:20;;;;;;;1.50;0.28;;;;;;;29.68;41.58;100703.31;4951740;28;20039;-70
2022/07/03 06:52:46;;;;;;;2.45;0.20;;;;;;;29.67;41.56;100707.09;4952373;29;20031;-70
2022/07/03 06:55:12;;;;;;;2.50;0.30;;;;;;;29.67;41.42;100701.72;4952047;28;20471;-71
2022/07/03 06:57:37;;;;;;;1.08;0.20;;;;;;;29.67;41.38;100700.91;4952093;28;20031;-70
2022/07/03 07:00:04;;;;;;;1.65;0.20;;;;;;;29.68;41.28;100707.88;4950811;28;20031;-71
2022/07/03 07:02:29;;;;;;;0.80;0.20;;;;;;;29.69;41.37;100706.81;4952847;29;20027;-71
2022/07/03 07:04:55;;;;;;;0.93;0.20;;;;;;;29.70;41.43;100701.19;4954196;28;20109;-71
2022/07/03 07:07:20;;;;;;;1.83;0.35;;;;;;;29.72;41.46;100708.97;4951819;28;20032;-71
2022/07/03 07:09:45;;;;;;;1.05;0.20;;;;;;;29.71;41.92;100708.16;4951172;28;20039;-72
2022/07/03 07:12:11;;;;;;;3.15;0.30;;;;;;;29.70;41.76;100700.38;4952271;29;20051;-71
2022/07/03 07:14:36;;;;;;;2.13;0.40;;;;;;;29.69;41.87;100704.13;4951855;28;20043;-71
2022/07/03 07:17:02;;;;;;;0.95;0.20;;;;;;;29.65;41.66;100703.03;4952735;28;20062;-71
2022/07/03 07:19:27;;;;;;;2.80;0.30;;;;;;;29.64;41.62;100709.50;4952574;29;20482;-71
2022/07/03 07:21:53;;;;;;;2.33;0.30;;;;;;;29.63;41.97;100705.19;4949466;28;20027;-71
2022/07/03 07:24:18;;;;;;;1.20;0.20;;;;;;;29.62;41.73;100698.22;4952353;29;20031;-71
2022/07/03 07:26:44;;;;;;;1.13;0.20;;;;;;;29.62;41.93;100698.22;4951182;28;20499;-72
2022/07/03 07:29:09;;;;;;;2.75;0.20;;;;;;;29.61;42.00;100705.44;4951455;29;20043;-71
2022/07/03 07:31:35;;;;;;;2.17;0.30;;;;;;;29.60;41.55;100703.03;4951757;28;20140;-71
2022/07/03 07:34:04;;;;;;;0.98;0.20;;;;;;;29.58;41.42;100710.53;4952325;29;20035;-71
2022/07/03 07:36:29;;;;;;;0.75;0.28;;;;;;;29.58;41.83;100705.97;4952918;28;20498;-71
2022/07/03 07:38:55;;;;;;;3.67;0.30;;;;;;;29.58;41.36;100703.28;4951044;28;20032;-71
2022/07/03 07:41:20;;;;;;;1.58;0.47;;;;;;;29.56;41.13;100696.56;4951047;29;20106;-71
2022/07/03 07:43:46;;;;;;;2.42;0.30;;;;;;;29.54;40.89;100696.84;4951467;29;20039;-71
2022/07/03 07:46:11;;;;;;;1.42;0.35;;;;;;;29.55;40.14;100694.97;4953396;28;20498;-71
2022/07/03 07:48:37;;;;;;;2.83;0.20;;;;;;;29.55;40.43;100689.59;4952316;28;20031;-72
2022/07/03 07:51:02;;;;;;;2.85;0.45;;;;;;;29.54;40.58;100688.78;4950851;29;20479;-71
2022/07/03 07:53:28;;;;;;;2.20;0.30;;;;;;;29.52;40.10;100690.94;4951319;28;20034;-71
2022/07/03 07:55:53;;;;;;;1.02;0.30;;;;;;;29.51;39.63;100683.13;4951422;28;20476;-71
2022/07/03 07:58:18;;;;;;;4.50;0.40;;;;;;;29.51;39.91;100683.94;4949965;28;20122;-71
2022/07/03 08:06:17;;;;;;;4.32;0.40;;;;;;;29.47;39.74;100684.75;4873155;29;20048;-71
2022/07/03 08:08:42;;;;;;;1.42;0.22;;;;;;;29.48;39.97;100681.78;4872467;29;20541;-71
2022/07/03 08:11:08;;;;;;;1.80;0.40;;;;;;;29.49;40.04;100680.72;4871606;29;20045;-71
2022/07/03 08:13:33;;;;;;;1.58;0.32;;;;;;;29.49;39.97;100683.41;4873151;29;20065;-71
2022/07/03 08:15:59;;;;;;;1.02;0.30;;;;;;;29.47;39.77;100680.16;4873816;29;20047;-71
2022/07/03 08:18:24;;;;;;;3.13;0.20;;;;;;;29.47;39.74;100676.69;4871568;29;20037;-71
2022/07/03 08:20:50;;;;;;;1.45;0.30;;;;;;;29.49;39.36;100677.22;4872524;29;20067;-71
2022/07/03 08:23:15;;;;;;;1.00;0.30;;;;;;;29.51;39.52;100677.78;4871548;29;20037;-71
2022/07/03 08:25:40;;;;;;;0.82;0.30;;;;;;;29.52;39.96;100666.78;4872878;29;20048;-71
2022/07/03 08:28:06;;;;;;;1.45;0.32;;;;;;;29.53;39.21;100660.31;4872730;29;20037;-71
2022/07/03 08:30:31;;;;;;;1.13;0.30;;;;;;;29.52;39.46;100666.78;4882305;29;20047;-71
2022/07/03 08:32:58;;;;;;;1.10;0.40;;;;;;;29.54;39.31;100666.50;4874859;29;20550;-71
2022/07/03 08:35:24;;;;;;;1.67;0.35;;;;;;;29.55;39.40;100660.06;4872347;29;20049;-71
2022/07/03 08:37:50;;;;;;;1.35;0.22;;;;;;;29.55;39.26;100660.88;4869806;29;20709;-71
2022/07/03 08:40:18;;;;;;;1.17;0.30;;;;;;;29.55;39.38;100655.50;4900340;28;20047;-71
2022/07/03 08:42:49;;;;;;;2.15;0.30;;;;;;;29.53;39.46;100654.97;4932633;29;20039;-71
2022/07/03 08:45:17;;;;;;;1.70;0.20;;;;;;;29.52;39.51;100650.66;4950666;29;20039;-71
2022/07/03 08:47:44;;;;;;;3.20;0.38;;;;;;;29.52;39.82;100645.28;4950675;29;20034;-71
2022/07/03 08:50:14;;;;;;;2.00;0.30;;;;;;;29.53;39.67;100652.28;4949992;28;20038;-72
2022/07/03 08:52:41;;;;;;;2.40;0.40;;;;;;;29.55;39.95;100649.31;4951383;28;20147;-71
2022/07/03 08:55:08;;;;;;;3.13;0.50;;;;;;;29.55;39.41;100658.19;4952581;28;20038;-71
2022/07/03 08:57:36;;;;;;;1.45;0.32;;;;;;;29.57;39.48;100649.88;4950493;29;20483;-70
2022/07/03 09:00:05;;;;;;;2.85;0.30;;;;;;;29.58;40.31;100656.84;4950693;29;20042;-70
2022/07/03 09:02:32;;;;;;;1.17;0.45;;;;;;;29.58;39.93;100649.59;4950733;28;20031;-71
2022/07/03 09:04:58;;;;;;;1.48;0.40;;;;;;;29.59;40.24;100647.72;4950478;29;20023;-70
2022/07/03 09:07:26;;;;;;;14.82;5.90;;;;;;;29.68;41.11;100643.44;4949645;28;20332;-70
2022/07/03 09:09:51;;;;;;;7.43;0.80;;;;;;;29.80;41.67;100638.59;4950425;28;20042;-69
2022/07/03 09:12:17;;;;;;;5.50;0.50;;;;;;;29.93;41.54;100646.13;4950782;28;20047;-70
2022/07/03 09:14:43;;;;;;;1.80;0.40;;;;;;;30.00;40.60;100635.97;4946980;28;20286;-69
2022/07/03 09:17:10;;;;;;;5.32;0.40;;;;;;;29.97;40.93;100635.66;4949333;29;20038;-69
2022/07/03 09:19:42;;;;;;;5.18;0.55;;;;;;;29.93;40.50;100638.06;4946457;28;20043;-69
2022/07/03 09:22:22;;;;;;;3.72;0.40;;;;;;;29.86;40.13;100637.53;4949679;28;20483;-70
2022/07/03 09:24:49;;;;;;;5.53;0.40;;;;;;;29.82;39.93;100639.16;4949891;28;20636;-71
2022/07/03 09:27:21;;;;;;;3.55;0.50;;;;;;;29.81;40.22;100632.16;4948897;28;20085;-71
2022/07/03 09:30:02;;;;;;;4.70;0.40;;;;;;;29.80;40.06;100633.22;4949031;29;20027;-71
2022/07/03 09:32:32;;;;;;;5.30;0.40;;;;;;;29.78;40.30;100631.88;4949328;28;20494;-70
2022/07/03 09:35:14;;;;;;;2.60;0.45;;;;;;;29.76;40.17;100634.88;4950144;28;20038;-70
2022/07/03 09:37:47;;;;;;;4.20;0.40;;;;;;;29.76;40.44;100632.19;4949447;28;20404;-70
2022/07/03 09:40:12;;;;;;;3.67;0.50;;;;;;;29.74;40.31;100628.97;4948855;28;20057;-70
2022/07/03 09:42:38;;;;;;;2.92;0.43;;;;;;;29.76;39.86;100624.13;4950172;29;20023;-70
2022/07/03 09:45:03;;;;;;;1.58;0.40;;;;;;;29.77;39.96;100630.31;4948999;28;20035;-71
2022/07/03 09:47:29;;;;;;;2.28;0.40;;;;;;;29.80;40.44;100638.59;4950325;28;20105;-71
2022/07/03 09:50:04;;;;;;;3.38;0.40;;;;;;;29.80;40.03;100640.47;4951494;28;20047;-71
2022/07/03 09:52:33;;;;;;;2.50;0.45;;;;;;;29.80;40.14;100635.91;4949608;28;20031;-71
2022/07/03 09:55:20;;;;;;;4.25;0.60;;;;;;;29.82;39.73;100631.09;4950073;29;20047;-70
2022/07/03 09:57:49;;;;;;;1.45;0.63;;;;;;;29.86;39.52;100624.09;4930568;29;20044;-69
2022/07/03 10:00:22;;;;;;;2.97;0.70;;;;;;;29.89;39.53;100615.53;4930739;29;20039;-69
2022/07/03 10:03:04;;;;;;;1.60;0.40;;;;;;;29.90;39.45;100613.63;4932901;28;20119;-71
2022/07/03 10:05:35;;;;;;;1.83;0.47;;;;;;;29.88;39.38;100610.41;4949109;28;20053;-71
2022/07/03 10:08:02;;;;;;;7.20;0.77;;;;;;;29.87;39.61;100611.50;4950489;28;20027;-70
2022/07/03 10:10:32;;;;;;;5.00;0.73;;;;;;;29.88;39.52;100616.59;4948111;28;20126;-70
2022/07/03 10:12:59;;;;;;;4.72;0.50;;;;;;;29.89;39.38;100612.03;4949086;29;20127;-70
2022/07/03 10:15:28;;;;;;;13.25;0.95;;;;;;;29.88;39.40;100616.59;4947160;28;20031;-71
2022/07/03 10:17:56;;;;;;;4.03;0.47;;;;;;;29.91;39.76;100618.75;4949034;28;20110;-71
2022/07/03 10:20:28;;;;;;;1.90;0.30;;;;;;;29.93;39.30;100616.59;4951357;28;20122;-69
2022/07/03 10:22:54;;;;;;;1.90;0.40;;;;;;;29.91;38.89;100617.94;4935760;28;20023;-69
2022/07/03 10:25:20;;;;;;;3.15;0.40;;;;;;;29.91;39.30;100613.38;4952995;28;20118;-70
2022/07/03 10:27:49;;;;;;;7.68;0.75;;;;;;;29.92;39.10;100617.66;4952359;28;20427;-70
2022/07/03 10:30:21;;;;;;;3.15;0.55;;;;;;;29.96;38.29;100605.31;4954922;28;20150;-70
2022/07/03 10:32:53;;;;;;;5.50;0.70;;;;;;;30.01;38.45;100608.03;4953004;29;20027;-71
2022/07/03 10:35:23;;;;;;;8.20;0.88;;;;;;;29.98;38.93;100605.03;4953232;29;20035;-71
2022/07/03 10:38:00;;;;;;;11.23;0.82;;;;;;;29.95;39.48;100609.06;4952691;29;20034;-69
2022/07/03 10:46:25;;;;;;;7.97;0.70;;;;;;;29.95;39.82;100608.25;4951483;28;20500;-69
2022/07/03 10:49:08;;;;;;;5.15;0.63;;;;;;;30.01;39.23;100597.28;4935868;29;20407;-71
2022/07/03 10:51:57;;;;;;;6.38;0.70;;;;;;;30.02;39.22;100598.91;4953045;29;20236;-71
2022/07/03 10:54:25;;;;;;;2.63;0.68;;;;;;;30.09;39.37;100600.50;4938647;29;20055;-70
2022/07/03 10:57:02;;;;;;;8.32;0.63;;;;;;;30.15;38.49;100592.16;4951391;28;20027;-68
2022/07/03 10:59:44;;;;;;;3.88;0.60;;;;;;;30.15;39.03;100588.69;4952420;28;20039;-71
2022/07/03 11:02:31;;;;;;;4.95;0.40;;;;;;;30.14;38.71;100592.44;4953135;29;20096;-71
2022/07/03 11:04:56;;;;;;;2.47;0.50;;;;;;;30.11;38.54;100579.56;4946015;28;20031;-70
2022/07/03 11:07:22;;;;;;;3.20;0.50;;;;;;;30.12;38.65;100579.28;4946390;29;20034;-70
2022/07/03 11:10:12;;;;;;;4.97;0.40;;;;;;;30.11;38.73;100576.84;4945706;28;20043;-69
2022/07/03 11:12:55;;;;;;;3.20;0.95;;;;;;;30.14;39.00;100579.81;4949225;28;20658;-72
2022/07/03 11:15:25;;;;;;;4.10;0.47;;;;;;;30.18;38.41;100572.03;4947180;28;20027;-71
2022/07/03 11:18:09;;;;;;;2.38;0.30;;;;;;;30.17;38.82;100575.78;4945531;28;20500;-70
2022/07/03 11:20:55;;;;;;;3.80;0.40;;;;;;;30.18;38.81;100569.34;4939614;28;20047;-72
2022/07/03 11:23:26;;;;;;;8.57;5.85;;;;;;;30.22;38.28;100556.97;4943782;28;20112;-73
2022/07/03 11:26:00;;;;;;;4.00;1.88;;;;;;;30.24;38.60;100555.63;4945358;28;20023;-73
2022/07/03 11:28:31;;;;;;;4.45;0.57;;;;;;;30.22;38.23;100544.34;4936727;28;20147;-72
2022/07/03 11:31:18;;;;;;;2.15;0.40;;;;;;;30.22;38.58;100543.53;4945295;28;20499;-72
2022/07/03 11:33:55;;;;;;;1.83;0.50;;;;;;;30.24;38.62;100542.19;4946176;28;20031;-73
2022/07/03 11:36:32;;;;;;;2.70;0.55;;;;;;;30.27;38.61;100538.91;4951626;28;20039;-71
2022/07/03 11:38:58;;;;;;;3.38;0.60;;;;;;;30.35;38.49;100545.63;4935358;29;20031;-71
2022/07/03 11:41:25;;;;;;;6.75;0.77;;;;;;;30.39;38.12;100535.94;4949174;28;20396;-72
2022/07/03 11:43:53;;;;;;;3.13;0.70;;;;;;;30.44;37.83;100530.53;4942378;28;20046;-73